Time;durP1;ratioP1;P1;durP2;ratioP2;P2;SDS_P1;SDS_P2;PMS_P1;PMS_P2;Temp;Humidity;BMP_temperature;BMP_pressure;BME280_temperature;BME280_humidity;BME280_pressure;Samples;Min_cycle;Max_cycle;Signal;HPM_P1;HPM_P2
2022/08/05 00:00:26;;;;;;;2.47;2.27;;;29.40;46.70;;;-142.21;42.31;112049.66;5113089;28;20249;-69
2022/08/05 00:02:53;;;;;;;4.83;2.40;;;29.30;46.60;;;-142.21;42.55;112049.66;5110737;28;20222;-70
2022/08/05 00:05:22;;;;;;;3.23;2.87;;;29.20;46.70;;;-142.21;43.56;112049.66;5113072;28;20201;-70
2022/08/05 00:07:50;;;;;;;2.70;2.50;;;29.10;47.00;;;-142.21;43.01;112049.66;5112197;28;20298;-70
2022/08/05 00:10:18;;;;;;;2.43;2.23;;;29.10;46.80;;;-142.21;43.83;112049.66;5112940;28;20289;-71
2022/08/05 00:12:48;;;;;;;5.60;2.63;;;29.10;47.00;;;-142.21;43.05;112049.66;5111172;28;20198;-71
2022/08/05 00:15:15;;;;;;;2.60;2.40;;;29.10;47.00;;;-142.21;43.14;112049.66;5112216;28;20202;-70
2022/08/05 00:17:42;;;;;;;2.50;2.30;;;29.20;47.00;;;-142.21;42.70;112049.66;5112249;28;20292;-70
2022/08/05 00:20:10;;;;;;;5.00;2.53;;;29.10;46.90;;;-142.21;42.39;112049.66;5111987;28;20297;-70
2022/08/05 00:22:37;;;;;;;3.47;2.50;;;29.10;46.60;;;-142.21;42.89;112049.66;5112370;28;20233;-71
2022/08/05 00:25:07;;;;;;;2.40;2.20;;;29.10;47.00;;;-142.21;42.22;112049.66;5098252;28;20264;-70
2022/08/05 00:27:34;;;;;;;4.23;2.60;;;29.10;46.70;;;-142.21;43.03;112049.66;5111930;28;20291;-71
2022/08/05 00:30:01;;;;;;;2.40;2.20;;;29.10;47.00;;;-142.21;42.58;112049.66;5112083;28;20290;-70
2022/08/05 00:32:28;;;;;;;2.47;2.27;;;29.10;47.50;;;-142.21;42.50;112049.66;5112735;28;20278;-70
2022/08/05 00:34:55;;;;;;;2.57;2.37;;;29.10;46.70;;;-142.21;42.55;112049.66;5096784;28;20305;-70
2022/08/05 00:37:22;;;;;;;2.80;2.60;;;29.10;46.90;;;-142.21;42.74;112049.66;5111880;28;20241;-70
2022/08/05 00:39:49;;;;;;;2.67;2.40;;;29.00;47.00;;;-142.21;42.85;112049.66;5112070;28;20290;-70
2022/08/05 00:42:35;;;;;;;3.10;2.50;;;29.00;47.00;;;-142.21;42.97;112049.66;5112068;28;20318;-72
2022/08/05 00:45:06;;;;;;;3.43;2.23;;;29.00;48.00;;;-142.21;42.99;112049.66;5110898;28;21444;-70
2022/08/05 00:47:36;;;;;;;2.73;2.40;;;29.00;47.10;;;-142.21;43.65;112049.66;5111182;28;20191;-70
2022/08/05 00:50:07;;;;;;;2.73;2.33;;;29.00;47.40;;;-142.21;43.87;112049.66;5111477;28;20229;-70
2022/08/05 00:52:34;;;;;;;2.47;2.27;;;29.10;47.60;;;-142.21;43.44;112049.66;5112506;28;20270;-70
2022/08/05 00:55:01;;;;;;;2.80;2.50;;;29.10;47.50;;;-142.21;43.51;112049.66;5111211;28;20737;-70
2022/08/05 00:57:30;;;;;;;2.83;2.60;;;29.10;47.60;;;-142.21;43.96;112049.66;5107917;28;20284;-70
2022/08/05 00:59:57;;;;;;;2.07;1.93;;;29.20;47.70;;;-142.21;44.24;112049.66;5111713;28;20200;-70
2022/08/05 01:02:24;;;;;;;3.33;2.60;;;29.10;48.40;;;-142.21;44.71;112049.66;5111310;28;20578;-70
2022/08/05 01:04:51;;;;;;;3.23;2.50;;;29.10;48.00;;;-142.21;44.72;112049.66;5109711;28;20288;-70
2022/08/05 01:07:21;;;;;;;2.37;2.07;;;29.10;48.10;;;-142.21;44.96;112049.66;5105109;28;20210;-70
2022/08/05 01:09:48;;;;;;;3.40;2.10;;;29.00;48.10;;;-142.21;45.24;112049.66;5111551;28;20216;-70
2022/08/05 01:12:20;;;;;;;2.40;2.20;;;29.00;48.20;;;-142.21;45.18;112049.66;5099504;28;20227;-70
2022/08/05 01:14:59;;;;;;;3.13;2.40;;;29.00;48.40;;;-142.21;46.34;112049.66;5094882;28;20289;-71
2022/08/05 01:17:39;;;;;;;3.03;2.47;;;29.00;48.70;;;-142.21;46.29;112049.66;5107419;28;21082;-70
2022/08/05 01:20:20;;;;;;;4.10;2.17;;;28.90;48.70;;;-142.21;46.59;112049.66;5115648;28;20185;-71
2022/08/05 01:23:08;;;;;;;3.67;2.50;;;28.90;49.00;;;-142.21;46.57;112049.66;5115684;28;20226;-72
2022/08/05 01:26:05;;;;;;;2.87;2.37;;;29.00;49.20;;;-142.21;47.16;112049.66;5095800;28;20210;-68
2022/08/05 01:28:38;;;;;;;3.80;2.70;;;29.00;49.50;;;-142.21;47.17;112049.66;5116478;28;20294;-70
2022/08/05 01:31:22;;;;;;;6.63;3.20;;;29.10;49.50;;;-142.21;47.25;112049.66;5117517;28;20190;-69
2022/08/05 01:33:59;;;;;;;5.80;3.17;;;29.10;49.50;;;-142.21;47.51;112049.66;5117468;28;20252;-70
2022/08/05 01:36:36;;;;;;;5.63;3.23;;;29.20;49.80;;;-142.21;47.69;112049.66;5116950;28;20202;-71
2022/08/05 01:39:03;;;;;;;3.93;3.00;;;29.20;49.70;;;-142.21;47.74;112049.66;5118802;28;20654;-69
2022/08/05 01:41:36;;;;;;;7.00;3.00;;;29.30;49.60;;;-142.21;48.42;112049.66;5118560;28;20238;-70
2022/08/05 01:44:08;;;;;;;8.57;3.60;;;29.30;49.70;;;-142.21;48.51;112049.66;5115312;28;20194;-69
2022/08/05 01:46:36;;;;;;;4.27;3.10;;;29.30;50.00;;;-142.21;48.20;112049.66;5102642;28;20274;-70
2022/08/05 01:49:06;;;;;;;3.60;3.30;;;29.30;49.90;;;-142.21;48.19;112049.66;5114721;28;20206;-70
2022/08/05 01:51:36;;;;;;;3.43;2.90;;;29.40;49.90;;;-142.21;48.23;112049.66;5114918;28;20208;-70
2022/08/05 01:54:08;;;;;;;4.50;3.10;;;29.40;49.90;;;-142.21;48.49;112049.66;5114335;28;20677;-70
2022/08/05 01:56:41;;;;;;;5.63;3.30;;;29.50;50.10;;;-142.21;48.34;112049.66;5114729;28;20276;-69
2022/08/05 01:59:16;;;;;;;5.13;3.00;;;29.50;50.20;;;-142.21;48.77;112049.66;5114836;28;20281;-72
2022/08/05 02:01:49;;;;;;;6.20;3.13;;;29.40;50.20;;;-142.21;49.71;112049.66;5114894;28;20271;-70
2022/08/05 02:04:22;;;;;;;3.53;2.83;;;29.30;50.30;;;-142.21;49.73;112049.66;5115693;28;20211;-69
2022/08/05 02:06:49;;;;;;;4.03;3.00;;;29.30;50.30;;;-142.21;50.17;112049.66;5111316;28;20200;-70
2022/08/05 02:09:18;;;;;;;5.47;3.07;;;29.30;50.40;;;-142.21;50.33;112049.66;5111308;28;20209;-70
2022/08/05 02:11:53;;;;;;;4.20;2.90;;;29.30;50.50;;;-142.21;50.76;112049.66;5114846;28;20200;-71
2022/08/05 02:14:30;;;;;;;5.20;3.10;;;29.20;50.60;;;-142.21;51.18;112049.66;5111674;28;20222;-70
2022/08/05 02:17:06;;;;;;;2.80;2.60;;;29.20;50.90;;;-142.21;51.71;112049.66;5104732;28;20235;-71
2022/08/05 02:19:39;;;;;;;3.93;2.70;;;29.10;50.70;;;-142.21;51.82;112049.66;5094896;28;20194;-69
2022/08/05 02:22:21;;;;;;;3.30;3.00;;;29.10;50.80;;;-142.21;52.31;112049.66;5111305;28;20262;-70
2022/08/05 02:24:55;;;;;;;4.53;3.00;;;29.10;50.90;;;-142.21;52.31;112049.66;5113996;28;20248;-70
2022/08/05 02:27:25;;;;;;;4.93;2.90;;;29.00;51.10;;;-142.21;52.48;112049.66;5104377;28;20188;-71
2022/08/05 02:29:56;;;;;;;4.33;3.30;;;29.00;51.30;;;-142.21;52.17;112049.66;5094474;28;20292;-70
2022/08/05 02:32:26;;;;;;;4.37;3.37;;;29.00;51.40;;;-142.21;52.01;112049.66;5109995;28;20215;-70
2022/08/05 02:34:54;;;;;;;6.43;2.90;;;29.00;51.20;;;-142.21;51.72;112049.66;5114290;28;20309;-70
2022/08/05 02:37:22;;;;;;;6.37;2.80;;;29.00;51.10;;;-142.21;51.74;112049.66;5112517;28;20230;-70
2022/08/05 02:39:51;;;;;;;3.70;2.93;;;29.00;51.30;;;-142.21;52.36;112049.66;5114270;28;20275;-70
2022/08/05 02:42:20;;;;;;;4.20;3.30;;;28.90;51.50;;;-142.21;53.17;112049.66;5113399;28;20701;-70
2022/08/05 02:44:49;;;;;;;3.70;2.93;;;28.70;51.60;;;-142.21;53.91;112049.66;5114039;28;20645;-70
2022/08/05 02:47:20;;;;;;;3.83;3.10;;;28.70;51.90;;;-142.21;54.25;112049.66;5104780;28;20199;-70
2022/08/05 02:49:50;;;;;;;3.67;2.80;;;28.50;52.30;;;-142.21;54.97;112049.66;5097804;28;20197;-70
2022/08/05 02:52:19;;;;;;;4.17;3.10;;;28.30;52.60;;;-142.21;55.81;112049.66;5111922;28;20195;-70
2022/08/05 02:54:49;;;;;;;5.57;3.10;;;28.20;52.90;;;-142.21;56.10;112049.66;5105920;28;20228;-70
2022/08/05 02:57:19;;;;;;;5.83;2.97;;;28.10;52.80;;;-142.21;56.03;112049.66;5104955;28;20273;-70
2022/08/05 02:59:49;;;;;;;3.17;2.87;;;28.20;52.80;;;-142.21;55.40;112049.66;5105638;28;20206;-70
2022/08/05 03:02:22;;;;;;;3.23;2.77;;;28.30;52.60;;;-142.21;56.03;112049.66;5113540;28;20229;-71
2022/08/05 03:04:53;;;;;;;3.07;2.70;;;28.30;52.70;;;-142.21;55.98;112049.66;5114534;28;20244;-70
2022/08/05 03:07:21;;;;;;;3.13;2.70;;;28.40;52.70;;;-142.21;55.45;112049.66;5105782;28;20186;-70
2022/08/05 03:09:49;;;;;;;3.30;2.80;;;28.40;52.50;;;-142.21;55.65;112049.66;5096200;28;20213;-70
2022/08/05 03:12:31;;;;;;;4.60;2.60;;;28.50;52.50;;;-142.21;55.79;112049.66;5113525;28;20246;-69
2022/08/05 03:14:58;;;;;;;5.13;3.40;;;28.50;52.90;;;-142.21;56.78;112049.66;5113477;28;20188;-70
2022/08/05 03:17:26;;;;;;;3.20;2.90;;;28.40;53.50;;;-142.21;57.19;112049.66;5104391;28;20206;-70
2022/08/05 03:19:53;;;;;;;4.30;2.97;;;28.50;53.00;;;-142.21;57.35;112049.66;5111720;28;20629;-69
2022/08/05 03:22:21;;;;;;;5.83;2.67;;;28.40;52.90;;;-142.21;57.99;112049.66;5113478;28;20336;-70
2022/08/05 03:24:49;;;;;;;5.20;2.80;;;28.40;53.10;;;-142.21;57.00;112049.66;5112467;28;20266;-70
2022/08/05 03:27:18;;;;;;;3.60;2.67;;;28.40;52.70;;;-142.21;55.69;112049.66;5111981;28;20284;-70
2022/08/05 03:29:45;;;;;;;3.50;3.00;;;28.40;52.40;;;-142.21;54.90;112049.66;5113473;28;20296;-71
2022/08/05 03:32:14;;;;;;;3.00;2.70;;;28.40;52.20;;;-142.21;54.93;112049.66;5103334;28;20731;-70
2022/08/05 03:34:44;;;;;;;3.80;2.70;;;28.20;52.20;;;-142.21;54.57;112049.66;5113681;28;20203;-69
2022/08/05 03:37:15;;;;;;;3.70;3.07;;;28.20;52.20;;;-142.21;54.49;112049.66;5105982;28;20198;-69
2022/08/05 03:39:58;;;;;;;5.67;3.27;;;28.20;52.30;;;-142.21;55.02;112049.66;5104699;28;20276;-70
2022/08/05 03:42:25;;;;;;;6.90;3.53;;;28.10;52.80;;;-142.21;55.07;112049.66;5112264;28;20222;-69
2022/08/05 03:44:52;;;;;;;3.93;3.10;;;28.10;52.70;;;-142.21;54.66;112049.66;5113691;28;20296;-70
2022/08/05 03:47:19;;;;;;;5.93;3.17;;;28.10;52.80;;;-142.21;55.71;112049.66;5111744;28;20215;-70
2022/08/05 03:49:48;;;;;;;6.17;3.40;;;28.10;52.80;;;-142.21;55.96;112049.66;5112740;28;20292;-70
2022/08/05 03:52:24;;;;;;;3.37;3.07;;;28.30;53.10;;;-142.21;56.69;112049.66;5112497;28;20206;-70
2022/08/05 03:54:59;;;;;;;4.33;3.13;;;28.30;53.40;;;-142.21;56.68;112049.66;5113517;28;20193;-70
2022/08/05 03:57:32;;;;;;;3.57;3.23;;;28.40;53.30;;;-142.21;58.25;112049.66;5112588;28;20287;-69
2022/08/05 04:00:05;;;;;;;4.10;3.30;;;28.50;53.70;;;-142.21;60.85;112049.66;5108983;28;20202;-70
2022/08/05 04:02:36;;;;;;;3.70;3.30;;;28.50;54.60;;;-142.21;62.77;112049.66;5111153;28;20210;-70
2022/08/05 04:05:09;;;;;;;6.03;3.40;;;28.50;55.00;;;-142.21;64.53;112049.66;5111630;28;20221;-71
2022/08/05 04:07:38;;;;;;;7.73;3.67;;;28.40;55.30;;;-142.21;66.77;112049.66;5106341;28;20275;-70
2022/08/05 04:10:06;;;;;;;5.27;3.80;;;28.40;55.80;;;-142.21;67.85;112049.66;5107342;28;20298;-70
2022/08/05 04:12:34;;;;;;;7.47;3.63;;;28.40;56.10;;;-142.21;68.67;112049.66;5112594;28;20197;-70
2022/08/05 04:15:01;;;;;;;5.57;3.67;;;28.40;56.30;;;-142.21;68.52;112049.66;5112357;28;20603;-70
2022/08/05 04:17:29;;;;;;;5.43;3.70;;;28.40;56.40;;;-142.21;69.25;112049.66;5099849;28;20301;-70
2022/08/05 04:19:56;;;;;;;9.60;4.50;;;28.40;56.70;;;-142.21;67.92;112049.66;5112330;28;20293;-70
2022/08/05 04:22:24;;;;;;;8.30;3.47;;;28.30;56.40;;;-142.21;66.53;112049.66;5111341;28;20288;-69
2022/08/05 04:24:51;;;;;;;9.10;3.60;;;28.30;56.10;;;-142.21;66.44;112049.66;5112524;28;20242;-69
2022/08/05 04:27:18;;;;;;;4.60;3.33;;;28.30;56.10;;;-142.21;68.41;112049.66;5111943;28;20211;-70
2022/08/05 04:29:45;;;;;;;6.07;3.40;;;28.30;56.50;;;-142.21;69.34;112049.66;5112410;28;20209;-71
2022/08/05 04:32:13;;;;;;;6.20;3.67;;;28.30;56.80;;;-142.21;70.30;112049.66;5112002;28;20240;-71
2022/08/05 04:34:40;;;;;;;8.47;4.13;;;28.30;57.10;;;-142.21;68.39;112049.66;5112778;28;20296;-68
2022/08/05 04:37:07;;;;;;;4.10;3.53;;;28.30;57.10;;;-142.21;68.48;112049.66;5111087;28;20293;-70
2022/08/05 04:39:36;;;;;;;4.70;3.77;;;28.20;56.70;;;-142.21;68.75;112049.66;5112529;28;20452;-69
2022/08/05 04:42:09;;;;;;;9.50;4.47;;;28.20;57.00;;;-142.21;69.59;112049.66;5059344;28;20206;-69
2022/08/05 04:44:36;;;;;;;6.60;3.73;;;28.10;57.40;;;-142.21;70.15;112049.66;5112595;28;20228;-70
2022/08/05 04:47:04;;;;;;;9.30;4.07;;;28.20;57.70;;;-142.21;69.34;112049.66;5111101;28;20676;-69
2022/08/05 04:49:33;;;;;;;4.47;3.57;;;28.20;57.50;;;-142.21;67.24;112049.66;5112132;28;20210;-70
2022/08/05 04:52:01;;;;;;;6.27;3.50;;;28.20;56.90;;;-142.21;66.00;112049.66;5111392;28;20680;-69
2022/08/05 04:54:28;;;;;;;4.37;3.10;;;28.10;56.70;;;-142.21;65.28;112049.66;5093898;28;20202;-70
2022/08/05 04:56:56;;;;;;;3.50;2.90;;;28.00;56.50;;;-142.21;62.14;112049.66;5113689;28;20292;-70
2022/08/05 04:59:23;;;;;;;6.00;2.83;;;27.90;56.00;;;-142.21;60.87;112049.66;5118191;28;20313;-70
2022/08/05 05:01:51;;;;;;;2.67;2.40;;;27.90;55.50;;;-142.21;57.64;112049.66;5115469;28;20233;-71
2022/08/05 05:04:20;;;;;;;2.57;2.37;;;27.90;54.90;;;-142.21;56.52;112049.66;5111234;28;20229;-70
2022/08/05 05:06:48;;;;;;;3.57;2.20;;;28.00;55.10;;;-142.21;55.45;112049.66;5111946;28;20212;-70
2022/08/05 05:09:15;;;;;;;4.03;2.33;;;28.10;54.00;;;-142.21;55.00;112049.66;5111615;28;20293;-70
2022/08/05 05:11:42;;;;;;;3.30;2.23;;;28.10;53.80;;;-142.21;54.95;112049.66;5112208;28;20299;-70
2022/08/05 05:14:10;;;;;;;3.43;2.37;;;28.20;53.70;;;-142.21;54.63;112049.66;5111240;28;20287;-70
2022/08/05 05:16:37;;;;;;;2.30;2.10;;;28.10;53.60;;;-142.21;54.91;112049.66;5111845;28;20225;-70
2022/08/05 05:19:04;;;;;;;4.37;2.43;;;28.20;53.50;;;-142.21;54.59;112049.66;5111547;28;20241;-73
2022/08/05 05:21:31;;;;;;;3.67;2.40;;;28.40;53.40;;;-142.21;54.32;112049.66;5111954;28;20201;-72
2022/08/05 05:23:58;;;;;;;3.10;2.20;;;28.50;53.10;;;-142.21;54.40;112049.66;5111175;28;20235;-71
2022/08/05 05:26:27;;;;;;;2.37;2.17;;;28.50;53.00;;;-142.21;54.33;112049.66;5111331;28;20210;-72
2022/08/05 05:28:55;;;;;;;2.00;1.90;;;28.70;52.90;;;-142.21;53.79;112049.66;5112237;28;20311;-71
2022/08/05 05:31:23;;;;;;;2.43;2.23;;;28.70;52.70;;;-142.21;53.16;112049.66;5111021;28;20287;-72
2022/08/05 05:33:50;;;;;;;3.07;2.80;;;28.80;52.50;;;-142.21;52.92;112049.66;5111619;28;20192;-71
2022/08/05 05:36:18;;;;;;;3.13;2.13;;;28.80;52.40;;;-142.21;52.91;112049.66;5111218;28;20208;-71
2022/08/05 05:38:45;;;;;;;3.03;2.60;;;28.90;52.50;;;-142.21;52.72;112049.66;5111710;28;20286;-70
2022/08/05 05:41:12;;;;;;;4.03;2.50;;;28.90;52.20;;;-142.21;52.34;112049.66;5110864;28;20200;-70
2022/08/05 05:43:39;;;;;;;5.20;2.47;;;28.90;52.20;;;-142.21;52.14;112049.66;5100621;28;20324;-71
2022/08/05 05:46:06;;;;;;;2.33;2.20;;;28.90;52.00;;;-142.21;52.23;112049.66;5110518;28;20201;-70
2022/08/05 05:48:35;;;;;;;4.77;2.50;;;29.00;51.90;;;-142.21;51.94;112049.66;5109908;28;20205;-71
2022/08/05 05:51:02;;;;;;;2.70;2.30;;;28.90;51.80;;;-142.21;52.20;112049.66;5111764;28;20280;-71
2022/08/05 05:53:29;;;;;;;4.17;2.13;;;28.90;52.00;;;-142.21;52.07;112049.66;5111686;28;20581;-70
2022/08/05 05:55:56;;;;;;;3.37;2.17;;;28.90;51.80;;;-142.21;51.33;112049.66;5111784;28;20289;-70
2022/08/05 05:58:23;;;;;;;4.27;2.37;;;29.00;51.60;;;-142.21;51.15;112049.66;5110218;28;20576;-70
2022/08/05 06:00:50;;;;;;;2.93;2.30;;;28.90;51.40;;;-142.21;51.18;112049.66;5112484;28;20297;-70
2022/08/05 06:03:17;;;;;;;4.37;2.20;;;29.00;51.40;;;-142.21;50.87;112049.66;5109482;28;20217;-71
2022/08/05 06:05:46;;;;;;;2.30;2.10;;;29.00;51.30;;;-142.21;50.69;112049.66;5115935;28;20296;-71
2022/08/05 06:08:13;;;;;;;3.67;2.00;;;29.00;51.30;;;-142.21;50.81;112049.66;5113984;28;20294;-71
2022/08/05 06:10:40;;;;;;;2.40;2.20;;;29.00;51.30;;;-142.21;49.94;112049.66;5115124;28;20210;-71
2022/08/05 06:13:07;;;;;;;3.30;2.20;;;29.10;51.10;;;-142.21;50.15;112049.66;5114498;28;20294;-70
2022/08/05 06:15:34;;;;;;;3.43;2.20;;;29.10;51.60;;;-142.21;49.63;112049.66;5113547;28;20202;-70
2022/08/05 06:18:01;;;;;;;2.53;1.67;;;29.10;50.80;;;-142.21;49.93;112049.66;5103080;28;20286;-71
2022/08/05 06:20:28;;;;;;;2.30;2.10;;;29.10;51.50;;;-142.21;49.70;112049.66;5114592;28;20296;-71
2022/08/05 06:22:58;;;;;;;2.93;2.50;;;29.10;50.80;;;-142.21;49.90;112049.66;5114230;28;20730;-71
2022/08/05 06:25:25;;;;;;;3.93;2.10;;;29.10;50.70;;;-142.21;51.12;112049.66;5114191;28;20309;-71
2022/08/05 06:27:53;;;;;;;4.80;2.50;;;29.30;51.20;;;-142.21;49.34;112049.66;5114423;28;20245;-70
2022/08/05 06:30:20;;;;;;;2.53;2.10;;;29.30;51.10;;;-142.21;49.94;112049.66;5114416;28;20292;-72
2022/08/05 06:32:47;;;;;;;2.70;2.10;;;29.30;51.30;;;-142.21;50.56;112049.66;5114904;28;20563;-71
2022/08/05 06:35:14;;;;;;;3.07;2.10;;;29.40;50.80;;;-142.21;49.04;112049.66;5114482;28;20228;-71
2022/08/05 06:37:41;;;;;;;2.63;2.30;;;29.40;50.40;;;-142.21;48.24;112049.66;5113658;28;20253;-71
2022/08/05 06:40:12;;;;;;;4.13;2.27;;;29.40;50.10;;;-142.21;47.60;112049.66;5114102;28;20205;-71
2022/08/05 06:42:39;;;;;;;2.50;2.17;;;29.30;49.90;;;-142.21;46.98;112049.66;5114613;28;20232;-71
2022/08/05 06:45:08;;;;;;;3.50;2.57;;;29.30;49.80;;;-142.21;47.65;112049.66;5114446;28;20313;-71
2022/08/05 06:47:35;;;;;;;2.90;2.50;;;29.30;50.20;;;-142.21;47.21;112049.66;5114750;28;20285;-71
2022/08/05 06:50:02;;;;;;;2.50;2.30;;;29.30;49.80;;;-142.21;46.48;112049.66;5114666;28;20245;-72
2022/08/05 06:52:31;;;;;;;4.77;2.10;;;29.30;49.80;;;-142.21;46.25;112049.66;5113981;28;20205;-70
2022/08/05 06:54:58;;;;;;;4.70;2.30;;;29.30;49.90;;;-142.21;46.12;112049.66;5114576;28;20191;-71
2022/08/05 06:57:27;;;;;;;4.27;2.70;;;29.40;49.70;;;-142.21;45.01;112049.66;5113744;28;20211;-71
2022/08/05 06:59:54;;;;;;;5.40;2.20;;;29.50;49.20;;;-142.21;44.56;112049.66;5114126;28;20293;-71
2022/08/05 07:02:21;;;;;;;4.97;2.20;;;29.50;49.10;;;-142.21;44.01;112049.66;5113463;28;20300;-71
2022/08/05 07:04:48;;;;;;;2.93;2.03;;;29.50;48.70;;;-142.21;43.01;112049.66;5114153;28;20310;-71
2022/08/05 07:07:15;;;;;;;2.43;1.97;;;29.60;48.20;;;-142.21;42.37;112049.66;5113484;28;20698;-71
2022/08/05 07:09:45;;;;;;;2.50;2.23;;;29.70;48.60;;;-142.21;41.71;112049.66;5114310;28;20267;-71
2022/08/05 07:16:48;;;;;;;2.30;2.10;;;29.70;47.80;;;-142.21;41.38;112049.66;5112954;28;20310;-71
2022/08/05 07:17:46;;;;;;;2.83;2.10;;;29.90;47.40;;;-142.21;40.76;112049.66;5113948;28;20567;-70
2022/08/05 07:20:13;;;;;;;2.87;1.90;;;29.80;47.10;;;-142.21;41.00;112049.66;5113336;28;20202;-71
2022/08/05 07:22:40;;;;;;;2.40;2.20;;;29.90;47.40;;;-142.21;42.64;112049.66;5113840;28;20239;-71
2022/08/05 07:25:08;;;;;;;2.67;1.90;;;30.10;48.00;;;-142.21;40.53;112049.66;5113281;28;20329;-70
2022/08/05 07:27:35;;;;;;;3.57;2.07;;;30.00;46.70;;;-142.21;40.59;112049.66;5113908;28;20605;-72
2022/08/05 07:30:04;;;;;;;2.13;1.93;;;30.00;46.80;;;-142.21;40.46;112049.66;5113455;28;20208;-71
2022/08/05 07:32:35;;;;;;;2.00;1.80;;;30.00;47.50;;;-142.21;40.17;112049.66;5113435;28;20596;-70
2022/08/05 07:35:06;;;;;;;3.17;2.00;;;30.10;46.50;;;-142.21;40.12;112049.66;5113425;28;20199;-71
2022/08/05 07:37:34;;;;;;;3.40;1.97;;;30.10;46.80;;;-142.21;39.56;112049.66;5112884;28;20278;-70
2022/08/05 07:40:01;;;;;;;2.33;1.87;;;30.10;46.20;;;-142.21;39.49;112049.66;5113508;28;20606;-71
2022/08/05 07:42:28;;;;;;;2.30;2.10;;;30.10;46.20;;;-142.21;39.73;112049.66;5113052;28;20211;-72
2022/08/05 07:44:55;;;;;;;2.20;2.00;;;30.30;46.30;;;-142.21;39.53;112049.66;5113446;28;20310;-71
2022/08/05 07:47:24;;;;;;;2.70;2.00;;;30.40;46.00;;;-142.21;39.00;112049.66;5113001;28;20219;-71
2022/08/05 07:49:51;;;;;;;2.87;2.20;;;30.50;45.70;;;-142.21;39.69;112049.66;5113292;28;20295;-72
2022/08/05 07:52:18;;;;;;;2.57;2.10;;;30.60;45.80;;;-142.21;39.42;112049.66;5112474;28;20221;-70
2022/08/05 07:54:46;;;;;;;2.23;2.03;;;30.70;45.70;;;-142.21;38.71;112049.66;5112935;28;20287;-71
2022/08/05 07:57:14;;;;;;;2.37;2.17;;;30.80;45.40;;;-142.21;38.66;112049.66;5112840;28;20195;-70
2022/08/05 07:59:41;;;;;;;2.83;2.07;;;30.90;45.10;;;-142.21;39.11;112049.66;5113226;28;20203;-71
2022/08/05 08:02:10;;;;;;;2.00;1.87;;;31.00;45.30;;;-142.21;38.66;112049.66;5113733;28;20611;-70
2022/08/05 08:04:39;;;;;;;2.60;2.10;;;31.00;45.00;;;-142.21;38.86;112049.66;5113002;28;20263;-72
2022/08/05 08:07:06;;;;;;;2.27;1.90;;;31.10;45.10;;;-142.21;38.42;112049.66;5113201;28;20242;-72
2022/08/05 08:09:33;;;;;;;2.60;2.13;;;31.20;44.70;;;-142.21;38.39;112049.66;5112371;28;20290;-71
2022/08/05 08:12:00;;;;;;;3.83;2.10;;;31.20;44.50;;;-142.21;38.21;112049.66;5113279;28;20211;-71
2022/08/05 08:14:28;;;;;;;2.17;1.97;;;31.00;44.60;;;-142.21;38.51;112049.66;5112557;28;20206;-71
2022/08/05 08:16:55;;;;;;;3.07;2.23;;;31.10;44.80;;;-142.21;38.62;112049.66;5113273;28;20294;-72
2022/08/05 08:19:22;;;;;;;2.40;2.20;;;31.00;44.40;;;-142.21;38.53;112049.66;5112967;28;20234;-70
2022/08/05 08:21:50;;;;;;;2.40;2.20;;;31.10;44.70;;;-142.21;39.59;112049.66;5117287;28;20208;-71
2022/08/05 08:24:18;;;;;;;2.40;2.20;;;31.30;45.10;;;-142.21;39.20;112049.66;5111672;28;20234;-71
2022/08/05 08:26:45;;;;;;;2.10;1.90;;;31.50;44.80;;;-142.21;39.25;112049.66;5112571;28;20204;-71
2022/08/05 08:29:12;;;;;;;3.40;2.10;;;31.70;44.60;;;-142.21;38.76;112049.66;5111798;28;20241;-72
2022/08/05 08:31:39;;;;;;;2.50;2.00;;;31.80;44.30;;;-142.21;39.16;112049.66;5112777;28;20367;-71
2022/08/05 08:34:09;;;;;;;2.50;2.00;;;32.00;44.50;;;-142.21;38.44;112049.66;5112805;28;20732;-70
2022/08/05 08:36:38;;;;;;;2.53;2.27;;;32.20;44.10;;;-142.21;37.12;112049.66;5112718;28;20298;-70
2022/08/05 08:39:07;;;;;;;2.60;2.20;;;32.30;42.90;;;-142.21;37.46;112049.66;5112570;28;20196;-71
2022/08/05 08:41:39;;;;;;;2.20;2.00;;;32.30;43.00;;;-142.21;36.83;112049.66;5112053;28;20211;-71
2022/08/05 08:44:08;;;;;;;2.43;2.23;;;32.50;42.60;;;-142.21;36.96;112049.66;5112257;28;20203;-72
2022/08/05 08:46:36;;;;;;;2.17;2.00;;;32.60;42.30;;;-142.21;36.07;112049.66;5112064;28;20231;-70
2022/08/05 08:49:07;;;;;;;2.60;1.90;;;32.50;41.60;;;-142.21;36.11;112049.66;5112601;28;20238;-70
2022/08/05 08:51:37;;;;;;;2.60;2.17;;;32.40;41.70;;;-142.21;36.81;112049.66;5111895;28;20196;-71
2022/08/05 08:54:06;;;;;;;2.77;2.00;;;32.40;42.30;;;-142.21;37.38;112049.66;5112878;28;20611;-70
2022/08/05 08:56:33;;;;;;;3.07;2.00;;;32.60;42.70;;;-142.21;38.52;112049.66;5112027;28;20307;-71
2022/08/05 08:59:01;;;;;;;2.17;1.97;;;32.80;43.60;;;-142.21;36.37;112049.66;5112333;28;20293;-71
2022/08/05 09:01:29;;;;;;;2.23;2.00;;;32.90;42.00;;;-142.21;35.14;112049.66;5111433;28;20254;-71
2022/08/05 09:03:59;;;;;;;1.90;1.80;;;32.90;40.50;;;-142.21;35.72;112049.66;5112131;28;20195;-71
2022/08/05 09:06:28;;;;;;;2.60;1.77;;;32.90;40.90;;;-142.21;36.79;112049.66;5111607;28;20216;-71
2022/08/05 09:08:56;;;;;;;2.20;2.00;;;33.10;41.90;;;-142.21;36.74;112049.66;5112440;28;20562;-71
2022/08/05 09:11:25;;;;;;;2.23;1.90;;;33.20;41.80;;;-142.21;36.69;112049.66;5111805;28;20203;-71
2022/08/05 09:13:54;;;;;;;3.50;1.70;;;33.40;41.90;;;-142.21;36.59;112049.66;5112150;28;20209;-71
2022/08/05 09:16:24;;;;;;;2.30;2.10;;;33.50;41.50;;;-142.21;36.17;112049.66;5111634;28;20204;-72
2022/08/05 09:18:51;;;;;;;4.40;2.20;;;33.60;41.30;;;-142.21;35.14;112049.66;5112406;28;20217;-70
2022/08/05 09:21:22;;;;;;;2.20;2.00;;;33.70;40.60;;;-142.21;34.52;112049.66;5111425;28;20383;-72
2022/08/05 09:24:04;;;;;;;2.70;2.03;;;33.70;39.80;;;-142.21;34.73;112049.66;5111805;28;20242;-71
2022/08/05 09:26:32;;;;;;;3.53;2.10;;;33.70;39.90;;;-142.21;34.63;112049.66;5111205;28;20193;-70
2022/08/05 09:29:03;;;;;;;2.63;2.20;;;33.70;39.90;;;-142.21;34.47;112049.66;5112149;28;20210;-71
2022/08/05 09:31:32;;;;;;;2.10;2.00;;;33.60;39.50;;;-142.21;34.53;112049.66;5111304;28;20194;-72
2022/08/05 09:34:01;;;;;;;2.10;1.90;;;33.60;39.60;;;-142.21;34.42;112049.66;5112237;28;20304;-71
2022/08/05 09:36:42;;;;;;;2.60;2.10;;;33.60;39.60;;;-142.21;33.60;112049.66;5115206;28;20196;-71
2022/08/05 09:39:13;;;;;;;3.00;1.90;;;33.60;38.70;;;-142.21;33.91;112049.66;5115714;28;20260;-71
2022/08/05 09:44:40;;;;;;;2.30;1.70;;;33.50;39.60;;;-142.21;34.08;112049.66;5088760;27;20550;-72
2022/08/05 09:47:11;;;;;;;1.83;1.73;;;33.80;39.60;;;-142.21;33.47;112049.66;5069548;28;20619;-71
2022/08/05 09:49:48;;;;;;;1.83;1.73;;;33.90;38.90;;;-142.21;34.49;112049.66;5068280;28;20195;-71
2022/08/05 09:52:22;;;;;;;2.03;1.83;;;34.00;40.10;;;-142.21;34.66;112049.66;5069433;28;20194;-72
2022/08/05 09:54:55;;;;;;;3.13;1.83;;;34.20;40.20;;;-142.21;34.57;112049.66;5069249;28;20524;-72
2022/08/05 09:57:34;;;;;;;2.00;1.80;;;34.40;39.80;;;-142.21;34.10;112049.66;5068753;28;20211;-71
2022/08/05 10:00:10;;;;;;;2.97;2.07;;;34.50;39.40;;;-142.21;33.56;112049.66;5068878;28;20279;-71
2022/08/05 10:02:41;;;;;;;2.40;2.00;;;34.60;38.80;;;-142.21;34.93;112049.66;5068493;28;20303;-71
2022/08/05 10:05:12;;;;;;;3.43;1.90;;;34.70;40.00;;;-142.21;33.17;112049.66;5068573;28;20675;-71
2022/08/05 10:07:52;;;;;;;2.80;1.97;;;34.70;38.80;;;-142.21;31.96;112049.66;5068226;28;20283;-72
2022/08/05 10:10:23;;;;;;;2.57;2.00;;;34.60;36.80;;;-142.21;32.37;112049.66;5068385;28;20227;-71
2022/08/05 10:12:54;;;;;;;2.10;1.90;;;34.30;37.60;;;-142.21;32.34;112049.66;5069013;28;20286;-72
2022/08/05 10:15:26;;;;;;;2.30;2.10;;;34.30;37.80;;;-142.21;34.02;112049.66;5068273;28;20274;-70